sensor_id;sensor_type;location;lat;lon;timestamp;P1;durP1;ratioP1;P2;durP2;ratioP2
6197;SDS011;3132;42.622;23.328;2022-09-17T00:00:36;8.90;;;8.17;;
6197;SDS011;3132;42.622;23.328;2022-09-17T00:03:03;9.00;;;8.10;;
6197;SDS011;3132;42.622;23.328;2022-09-17T00:05:29;9.90;;;8.67;;
6197;SDS011;3132;42.622;23.328;2022-09-17T00:07:54;10.87;;;7.83;;
6197;SDS011;3132;42.622;23.328;2022-09-17T00:10:20;9.13;;;8.57;;
6197;SDS011;3132;42.622;23.328;2022-09-17T00:12:47;9.63;;;8.97;;
6197;SDS011;3132;42.622;23.328;2022-09-17T00:15:13;8.83;;;8.33;;
6197;SDS011;3132;42.622;23.328;2022-09-17T00:17:39;9.63;;;9.07;;
6197;SDS011;3132;42.622;23.328;2022-09-17T00:20:05;8.83;;;8.13;;
6197;SDS011;3132;42.622;23.328;2022-09-17T00:22:37;8.63;;;8.07;;
6197;SDS011;3132;42.622;23.328;2022-09-17T00:25:04;9.23;;;8.50;;
6197;SDS011;3132;42.622;23.328;2022-09-17T00:27:31;8.23;;;7.83;;
6197;SDS011;3132;42.622;23.328;2022-09-17T00:29:56;8.07;;;7.50;;
6197;SDS011;3132;42.622;23.328;2022-09-17T00:32:22;9.57;;;8.60;;
6197;SDS011;3132;42.622;23.328;2022-09-17T00:34:48;8.87;;;7.57;;
6197;SDS011;3132;42.622;23.328;2022-09-17T00:37:18;9.47;;;8.97;;
6197;SDS011;3132;42.622;23.328;2022-09-17T00:39:44;9.40;;;8.47;;
6197;SDS011;3132;42.622;23.328;2022-09-17T00:42:11;10.40;;;9.37;;
6197;SDS011;3132;42.622;23.328;2022-09-17T00:47:19;9.33;;;8.60;;
6197;SDS011;3132;42.622;23.328;2022-09-17T00:49:49;9.33;;;8.60;;
6197;SDS011;3132;42.622;23.328;2022-09-17T00:52:23;8.77;;;8.20;;
6197;SDS011;3132;42.622;23.328;2022-09-17T00:54:53;8.73;;;8.03;;
6197;SDS011;3132;42.622;23.328;2022-09-17T00:57:24;8.70;;;7.93;;
6197;SDS011;3132;42.622;23.328;2022-09-17T00:59:50;8.70;;;7.67;;
6197;SDS011;3132;42.622;23.328;2022-09-17T01:02:15;9.10;;;8.47;;
6197;SDS011;3132;42.622;23.328;2022-09-17T01:04:41;9.57;;;8.57;;
6197;SDS011;3132;42.622;23.328;2022-09-17T01:15:13;9.33;;;8.33;;
6197;SDS011;3132;42.622;23.328;2022-09-17T01:32:11;9.87;;;9.30;;
6197;SDS011;3132;42.622;23.328;2022-09-17T01:38:00;9.90;;;9.00;;
6197;SDS011;3132;42.622;23.328;2022-09-17T01:40:44;9.67;;;8.87;;
6197;SDS011;3132;42.622;23.328;2022-09-17T01:43:23;10.43;;;9.57;;
6197;SDS011;3132;42.622;23.328;2022-09-17T01:45:53;9.47;;;8.83;;
6197;SDS011;3132;42.622;23.328;2022-09-17T01:48:22;10.67;;;9.77;;
6197;SDS011;3132;42.622;23.328;2022-09-17T01:51:07;10.97;;;9.63;;
6197;SDS011;3132;42.622;23.328;2022-09-17T01:53:37;10.10;;;9.47;;
6197;SDS011;3132;42.622;23.328;2022-09-17T01:56:08;8.83;;;8.13;;
6197;SDS011;3132;42.622;23.328;2022-09-17T01:58:39;9.30;;;8.33;;
6197;SDS011;3132;42.622;23.328;2022-09-17T02:01:10;9.23;;;8.47;;
6197;SDS011;3132;42.622;23.328;2022-09-17T02:03:41;8.87;;;8.17;;
6197;SDS011;3132;42.622;23.328;2022-09-17T02:06:16;12.77;;;10.67;;
6197;SDS011;3132;42.622;23.328;2022-09-17T02:08:48;12.30;;;11.00;;
6197;SDS011;3132;42.622;23.328;2022-09-17T02:11:19;13.77;;;12.20;;
6197;SDS011;3132;42.622;23.328;2022-09-17T02:16:11;15.67;;;11.77;;
6197;SDS011;3132;42.622;23.328;2022-09-17T02:18:44;12.97;;;11.77;;
6197;SDS011;3132;42.622;23.328;2022-09-17T02:24:26;7.57;;;7.17;;
6197;SDS011;3132;42.622;23.328;2022-09-17T02:27:03;9.20;;;8.60;;
6197;SDS011;3132;42.622;23.328;2022-09-17T02:29:41;8.23;;;7.53;;
6197;SDS011;3132;42.622;23.328;2022-09-17T02:32:08;8.77;;;8.13;;
6197;SDS011;3132;42.622;23.328;2022-09-17T02:34:35;13.30;;;8.87;;
6197;SDS011;3132;42.622;23.328;2022-09-17T02:37:00;9.70;;;8.70;;
6197;SDS011;3132;42.622;23.328;2022-09-17T02:39:27;9.10;;;8.20;;
6197;SDS011;3132;42.622;23.328;2022-09-17T02:52:37;10.47;;;9.67;;
6197;SDS011;3132;42.622;23.328;2022-09-17T02:55:21;9.90;;;9.23;;
6197;SDS011;3132;42.622;23.328;2022-09-17T02:57:55;10.20;;;9.27;;
6197;SDS011;3132;42.622;23.328;2022-09-17T03:00:28;10.80;;;9.67;;
6197;SDS011;3132;42.622;23.328;2022-09-17T03:05:23;11.00;;;10.00;;
6197;SDS011;3132;42.622;23.328;2022-09-17T03:07:50;12.27;;;9.50;;
6197;SDS011;3132;42.622;23.328;2022-09-17T03:10:16;10.70;;;9.80;;
6197;SDS011;3132;42.622;23.328;2022-09-17T03:12:43;10.67;;;9.80;;
6197;SDS011;3132;42.622;23.328;2022-09-17T03:15:09;10.47;;;9.77;;
6197;SDS011;3132;42.622;23.328;2022-09-17T03:17:34;11.43;;;10.43;;
6197;SDS011;3132;42.622;23.328;2022-09-17T03:20:00;11.83;;;10.83;;
6197;SDS011;3132;42.622;23.328;2022-09-17T03:22:25;11.60;;;10.40;;
6197;SDS011;3132;42.622;23.328;2022-09-17T03:24:51;11.23;;;10.23;;
6197;SDS011;3132;42.622;23.328;2022-09-17T03:27:16;11.20;;;10.40;;
6197;SDS011;3132;42.622;23.328;2022-09-17T03:29:42;12.17;;;10.97;;
6197;SDS011;3132;42.622;23.328;2022-09-17T03:32:08;12.30;;;11.30;;
6197;SDS011;3132;42.622;23.328;2022-09-17T03:34:33;11.60;;;10.97;;
6197;SDS011;3132;42.622;23.328;2022-09-17T03:36:58;12.33;;;10.43;;
6197;SDS011;3132;42.622;23.328;2022-09-17T03:39:24;12.20;;;9.77;;
6197;SDS011;3132;42.622;23.328;2022-09-17T03:41:49;11.23;;;10.13;;
6197;SDS011;3132;42.622;23.328;2022-09-17T03:44:15;12.03;;;10.27;;
6197;SDS011;3132;42.622;23.328;2022-09-17T03:46:42;10.27;;;9.27;;
6197;SDS011;3132;42.622;23.328;2022-09-17T03:49:08;10.53;;;9.70;;
6197;SDS011;3132;42.622;23.328;2022-09-17T03:51:33;10.13;;;9.43;;
6197;SDS011;3132;42.622;23.328;2022-09-17T03:53:58;9.37;;;8.50;;
6197;SDS011;3132;42.622;23.328;2022-09-17T03:56:24;8.50;;;7.90;;
6197;SDS011;3132;42.622;23.328;2022-09-17T03:58:55;9.50;;;8.80;;
6197;SDS011;3132;42.622;23.328;2022-09-17T04:01:22;9.97;;;9.03;;
6197;SDS011;3132;42.622;23.328;2022-09-17T04:03:47;9.27;;;8.37;;
6197;SDS011;3132;42.622;23.328;2022-09-17T04:06:12;13.87;;;10.23;;
6197;SDS011;3132;42.622;23.328;2022-09-17T04:08:38;9.40;;;8.70;;
6197;SDS011;3132;42.622;23.328;2022-09-17T04:11:03;8.73;;;8.13;;
6197;SDS011;3132;42.622;23.328;2022-09-17T04:13:29;11.67;;;8.53;;
6197;SDS011;3132;42.622;23.328;2022-09-17T04:15:54;9.67;;;8.87;;
6197;SDS011;3132;42.622;23.328;2022-09-17T04:18:19;8.37;;;7.67;;
6197;SDS011;3132;42.622;23.328;2022-09-17T04:20:45;8.77;;;7.97;;
6197;SDS011;3132;42.622;23.328;2022-09-17T04:23:10;10.40;;;9.37;;
6197;SDS011;3132;42.622;23.328;2022-09-17T04:25:36;11.07;;;9.30;;
6197;SDS011;3132;42.622;23.328;2022-09-17T04:28:02;9.03;;;8.40;;
6197;SDS011;3132;42.622;23.328;2022-09-17T04:30:27;10.33;;;9.43;;
6197;SDS011;3132;42.622;23.328;2022-09-17T04:32:53;9.60;;;8.80;;
6197;SDS011;3132;42.622;23.328;2022-09-17T04:35:18;8.77;;;8.17;;
6197;SDS011;3132;42.622;23.328;2022-09-17T04:37:50;9.30;;;8.57;;
6197;SDS011;3132;42.622;23.328;2022-09-17T04:40:16;12.10;;;8.37;;
6197;SDS011;3132;42.622;23.328;2022-09-17T04:42:41;9.20;;;8.40;;
6197;SDS011;3132;42.622;23.328;2022-09-17T04:45:07;9.70;;;9.07;;
6197;SDS011;3132;42.622;23.328;2022-09-17T04:47:32;9.80;;;9.00;;
6197;SDS011;3132;42.622;23.328;2022-09-17T04:49:58;10.00;;;9.00;;
6197;SDS011;3132;42.622;23.328;2022-09-17T04:52:23;14.27;;;8.97;;
6197;SDS011;3132;42.622;23.328;2022-09-17T04:54:48;11.10;;;9.50;;
6197;SDS011;3132;42.622;23.328;2022-09-17T04:57:14;10.80;;;9.80;;
6197;SDS011;3132;42.622;23.328;2022-09-17T04:59:39;9.20;;;8.60;;
6197;SDS011;3132;42.622;23.328;2022-09-17T05:02:04;9.73;;;8.80;;
6197;SDS011;3132;42.622;23.328;2022-09-17T05:04:30;10.47;;;9.47;;
6197;SDS011;3132;42.622;23.328;2022-09-17T05:06:55;11.37;;;10.13;;
6197;SDS011;3132;42.622;23.328;2022-09-17T05:09:21;11.83;;;10.70;;
6197;SDS011;3132;42.622;23.328;2022-09-17T05:11:46;11.30;;;10.43;;
6197;SDS011;3132;42.622;23.328;2022-09-17T05:14:11;11.60;;;10.70;;
6197;SDS011;3132;42.622;23.328;2022-09-17T05:16:38;11.50;;;10.63;;
6197;SDS011;3132;42.622;23.328;2022-09-17T05:19:03;11.50;;;10.40;;
6197;SDS011;3132;42.622;23.328;2022-09-17T05:21:28;11.00;;;10.10;;
6197;SDS011;3132;42.622;23.328;2022-09-17T05:23:54;12.70;;;11.57;;
6197;SDS011;3132;42.622;23.328;2022-09-17T05:26:19;14.23;;;11.20;;
6197;SDS011;3132;42.622;23.328;2022-09-17T05:28:45;15.10;;;10.83;;
6197;SDS011;3132;42.622;23.328;2022-09-17T05:31:10;11.07;;;10.33;;
6197;SDS011;3132;42.622;23.328;2022-09-17T05:33:35;10.90;;;10.17;;
6197;SDS011;3132;42.622;23.328;2022-09-17T05:36:01;11.90;;;10.87;;
6197;SDS011;3132;42.622;23.328;2022-09-17T05:38:26;10.77;;;10.00;;
6197;SDS011;3132;42.622;23.328;2022-09-17T05:40:51;10.47;;;9.43;;
6197;SDS011;3132;42.622;23.328;2022-09-17T05:43:17;11.13;;;10.13;;
6197;SDS011;3132;42.622;23.328;2022-09-17T05:45:42;11.33;;;10.30;;
6197;SDS011;3132;42.622;23.328;2022-09-17T05:48:11;10.23;;;9.40;;
6197;SDS011;3132;42.622;23.328;2022-09-17T05:50:38;7.60;;;7.20;;
6197;SDS011;3132;42.622;23.328;2022-09-17T06:00:12;8.27;;;7.87;;
6197;SDS011;3132;42.622;23.328;2022-09-17T06:02:38;8.17;;;7.87;;
6197;SDS011;3132;42.622;23.328;2022-09-17T06:05:04;9.43;;;9.03;;
6197;SDS011;3132;42.622;23.328;2022-09-17T06:07:29;7.23;;;6.83;;
6197;SDS011;3132;42.622;23.328;2022-09-17T06:09:55;8.60;;;7.77;;
6197;SDS011;3132;42.622;23.328;2022-09-17T06:12:20;7.80;;;7.50;;
6197;SDS011;3132;42.622;23.328;2022-09-17T06:14:46;8.33;;;7.93;;
6197;SDS011;3132;42.622;23.328;2022-09-17T06:17:11;8.30;;;7.90;;
6197;SDS011;3132;42.622;23.328;2022-09-17T06:19:37;8.03;;;7.63;;
6197;SDS011;3132;42.622;23.328;2022-09-17T06:22:02;8.37;;;7.73;;
6197;SDS011;3132;42.622;23.328;2022-09-17T06:24:29;7.87;;;7.30;;
6197;SDS011;3132;42.622;23.328;2022-09-17T06:26:55;8.00;;;7.60;;
6197;SDS011;3132;42.622;23.328;2022-09-17T06:29:20;8.57;;;7.97;;
6197;SDS011;3132;42.622;23.328;2022-09-17T06:31:46;7.57;;;7.27;;
6197;SDS011;3132;42.622;23.328;2022-09-17T06:34:12;9.80;;;9.07;;
6197;SDS011;3132;42.622;23.328;2022-09-17T06:36:38;12.33;;;10.93;;
6197;SDS011;3132;42.622;23.328;2022-09-17T06:39:04;12.13;;;10.83;;
6197;SDS011;3132;42.622;23.328;2022-09-17T06:41:29;10.80;;;10.00;;
6197;SDS011;3132;42.622;23.328;2022-09-17T06:43:55;11.90;;;10.87;;
6197;SDS011;3132;42.622;23.328;2022-09-17T06:46:20;11.90;;;10.80;;
6197;SDS011;3132;42.622;23.328;2022-09-17T06:48:45;11.93;;;10.70;;
6197;SDS011;3132;42.622;23.328;2022-09-17T06:51:11;11.90;;;10.70;;
6197;SDS011;3132;42.622;23.328;2022-09-17T06:53:37;11.57;;;10.57;;
6197;SDS011;3132;42.622;23.328;2022-09-17T06:56:04;12.60;;;11.10;;
6197;SDS011;3132;42.622;23.328;2022-09-17T06:58:30;15.30;;;11.17;;
6197;SDS011;3132;42.622;23.328;2022-09-17T07:00:59;11.53;;;10.53;;
6197;SDS011;3132;42.622;23.328;2022-09-17T07:03:25;12.30;;;10.37;;
6197;SDS011;3132;42.622;23.328;2022-09-17T07:05:51;12.37;;;10.43;;
6197;SDS011;3132;42.622;23.328;2022-09-17T07:08:17;11.30;;;10.10;;
6197;SDS011;3132;42.622;23.328;2022-09-17T07:10:42;10.53;;;9.53;;
6197;SDS011;3132;42.622;23.328;2022-09-17T07:13:08;11.07;;;10.00;;
6197;SDS011;3132;42.622;23.328;2022-09-17T07:15:33;10.07;;;9.20;;
6197;SDS011;3132;42.622;23.328;2022-09-17T07:17:58;10.27;;;9.37;;
6197;SDS011;3132;42.622;23.328;2022-09-17T07:20:24;11.07;;;10.13;;
6197;SDS011;3132;42.622;23.328;2022-09-17T07:22:56;13.73;;;12.47;;
6197;SDS011;3132;42.622;23.328;2022-09-17T07:25:25;10.10;;;9.43;;
6197;SDS011;3132;42.622;23.328;2022-09-17T07:27:50;10.03;;;9.23;;
6197;SDS011;3132;42.622;23.328;2022-09-17T07:30:17;9.40;;;8.70;;
6197;SDS011;3132;42.622;23.328;2022-09-17T07:32:42;9.67;;;8.70;;
6197;SDS011;3132;42.622;23.328;2022-09-17T07:35:08;11.00;;;10.30;;
6197;SDS011;3132;42.622;23.328;2022-09-17T07:37:33;9.83;;;9.10;;
6197;SDS011;3132;42.622;23.328;2022-09-17T07:39:59;7.72;;;7.22;;
6197;SDS011;3132;42.622;23.328;2022-09-17T07:42:24;8.90;;;8.35;;
6197;SDS011;3132;42.622;23.328;2022-09-17T07:44:51;10.35;;;9.32;;
6197;SDS011;3132;42.622;23.328;2022-09-17T07:47:17;9.07;;;8.45;;
6197;SDS011;3132;42.622;23.328;2022-09-17T07:49:42;11.00;;;8.77;;
6197;SDS011;3132;42.622;23.328;2022-09-17T07:52:07;9.10;;;8.40;;
6197;SDS011;3132;42.622;23.328;2022-09-17T07:54:33;9.90;;;9.00;;
6197;SDS011;3132;42.622;23.328;2022-09-17T07:57:01;10.30;;;9.30;;
6197;SDS011;3132;42.622;23.328;2022-09-17T07:59:27;11.00;;;10.10;;
6197;SDS011;3132;42.622;23.328;2022-09-17T08:01:52;11.60;;;10.40;;
6197;SDS011;3132;42.622;23.328;2022-09-17T08:04:18;12.17;;;10.93;;
6197;SDS011;3132;42.622;23.328;2022-09-17T08:06:43;13.20;;;11.43;;
6197;SDS011;3132;42.622;23.328;2022-09-17T08:09:12;11.67;;;10.40;;
6197;SDS011;3132;42.622;23.328;2022-09-17T08:11:39;9.77;;;9.27;;
6197;SDS011;3132;42.622;23.328;2022-09-17T08:14:05;14.13;;;10.53;;
6197;SDS011;3132;42.622;23.328;2022-09-17T08:16:31;11.07;;;9.90;;
6197;SDS011;3132;42.622;23.328;2022-09-17T08:18:56;11.20;;;9.83;;
6197;SDS011;3132;42.622;23.328;2022-09-17T08:21:22;10.03;;;9.30;;
6197;SDS011;3132;42.622;23.328;2022-09-17T08:23:48;11.40;;;10.33;;
6197;SDS011;3132;42.622;23.328;2022-09-17T08:26:14;10.53;;;9.83;;
6197;SDS011;3132;42.622;23.328;2022-09-17T08:28:49;11.50;;;9.30;;
6197;SDS011;3132;42.622;23.328;2022-09-17T08:31:16;9.70;;;8.93;;
6197;SDS011;3132;42.622;23.328;2022-09-17T08:33:43;9.00;;;8.20;;
6197;SDS011;3132;42.622;23.328;2022-09-17T08:36:11;9.37;;;8.67;;
6197;SDS011;3132;42.622;23.328;2022-09-17T08:38:38;8.87;;;8.27;;
6197;SDS011;3132;42.622;23.328;2022-09-17T08:43:30;8.53;;;8.03;;
6197;SDS011;3132;42.622;23.328;2022-09-17T08:46:00;9.27;;;8.43;;
6197;SDS011;3132;42.622;23.328;2022-09-17T08:48:28;8.63;;;8.13;;
6197;SDS011;3132;42.622;23.328;2022-09-17T08:51:04;9.83;;;7.80;;
6197;SDS011;3132;42.622;23.328;2022-09-17T08:56:32;7.97;;;7.40;;
6197;SDS011;3132;42.622;23.328;2022-09-17T08:59:05;10.10;;;7.97;;
6197;SDS011;3132;42.622;23.328;2022-09-17T09:01:44;8.67;;;7.97;;
6197;SDS011;3132;42.622;23.328;2022-09-17T09:07:08;8.73;;;8.00;;
6197;SDS011;3132;42.622;23.328;2022-09-17T09:09:38;9.67;;;9.07;;
6197;SDS011;3132;42.622;23.328;2022-09-17T09:12:14;9.95;;;9.25;;
6197;SDS011;3132;42.622;23.328;2022-09-17T09:14:57;10.50;;;9.77;;
6197;SDS011;3132;42.622;23.328;2022-09-17T09:17:27;8.83;;;8.20;;
6197;SDS011;3132;42.622;23.328;2022-09-17T09:19:58;13.07;;;10.07;;
6197;SDS011;3132;42.622;23.328;2022-09-17T09:22:27;11.37;;;10.27;;
6197;SDS011;3132;42.622;23.328;2022-09-17T09:30:36;9.90;;;9.10;;
6197;SDS011;3132;42.622;23.328;2022-09-17T09:33:26;11.77;;;10.93;;
6197;SDS011;3132;42.622;23.328;2022-09-17T09:35:56;17.80;;;12.33;;
6197;SDS011;3132;42.622;23.328;2022-09-17T09:40:57;11.03;;;9.90;;
6197;SDS011;3132;42.622;23.328;2022-09-17T09:43:46;11.07;;;10.13;;
6197;SDS011;3132;42.622;23.328;2022-09-17T09:57:13;11.47;;;9.90;;
6197;SDS011;3132;42.622;23.328;2022-09-17T09:59:41;12.50;;;9.63;;
6197;SDS011;3132;42.622;23.328;2022-09-17T10:02:07;14.50;;;11.50;;
6197;SDS011;3132;42.622;23.328;2022-09-17T10:04:32;12.40;;;10.67;;
6197;SDS011;3132;42.622;23.328;2022-09-17T10:07:05;14.03;;;12.73;;
6197;SDS011;3132;42.622;23.328;2022-09-17T10:09:32;13.83;;;12.63;;
6197;SDS011;3132;42.622;23.328;2022-09-17T10:14:36;12.87;;;11.67;;
6197;SDS011;3132;42.622;23.328;2022-09-17T10:19:35;12.03;;;10.83;;
6197;SDS011;3132;42.622;23.328;2022-09-17T10:22:16;14.47;;;11.73;;
6197;SDS011;3132;42.622;23.328;2022-09-17T10:24:52;14.23;;;11.00;;
6197;SDS011;3132;42.622;23.328;2022-09-17T10:27:20;12.40;;;11.30;;
6197;SDS011;3132;42.622;23.328;2022-09-17T10:29:48;11.03;;;10.03;;
6197;SDS011;3132;42.622;23.328;2022-09-17T10:32:18;9.20;;;8.67;;
6197;SDS011;3132;42.622;23.328;2022-09-17T10:35:02;8.40;;;8.10;;
6197;SDS011;3132;42.622;23.328;2022-09-17T10:40:40;8.33;;;7.83;;
6197;SDS011;3132;42.622;23.328;2022-09-17T10:43:19;6.87;;;6.67;;
6197;SDS011;3132;42.622;23.328;2022-09-17T10:45:54;7.73;;;7.43;;
6197;SDS011;3132;42.622;23.328;2022-09-17T10:48:21;7.77;;;7.47;;
6197;SDS011;3132;42.622;23.328;2022-09-17T10:50:51;7.70;;;7.40;;
6197;SDS011;3132;42.622;23.328;2022-09-17T10:53:18;7.73;;;7.43;;
6197;SDS011;3132;42.622;23.328;2022-09-17T10:58:38;7.23;;;6.93;;
6197;SDS011;3132;42.622;23.328;2022-09-17T11:10:08;7.60;;;7.30;;
6197;SDS011;3132;42.622;23.328;2022-09-17T11:35:10;10.07;;;9.37;;
6197;SDS011;3132;42.622;23.328;2022-09-17T11:37:41;13.77;;;9.77;;
6197;SDS011;3132;42.622;23.328;2022-09-17T11:40:18;9.93;;;9.27;;
6197;SDS011;3132;42.622;23.328;2022-09-17T11:42:53;10.37;;;9.40;;
6197;SDS011;3132;42.622;23.328;2022-09-17T11:45:26;9.97;;;9.17;;
6197;SDS011;3132;42.622;23.328;2022-09-17T11:47:59;8.27;;;7.87;;
6197;SDS011;3132;42.622;23.328;2022-09-17T11:53:24;8.63;;;8.13;;
6197;SDS011;3132;42.622;23.328;2022-09-17T11:59:04;9.00;;;8.40;;
6197;SDS011;3132;42.622;23.328;2022-09-17T12:06:56;8.23;;;7.73;;
6197;SDS011;3132;42.622;23.328;2022-09-17T12:09:28;8.27;;;7.90;;
6197;SDS011;3132;42.622;23.328;2022-09-17T12:12:06;7.53;;;7.13;;
6197;SDS011;3132;42.622;23.328;2022-09-17T12:17:02;7.10;;;6.87;;
6197;SDS011;3132;42.622;23.328;2022-09-17T12:19:31;7.60;;;7.30;;
6197;SDS011;3132;42.622;23.328;2022-09-17T12:22:03;7.80;;;7.30;;
6197;SDS011;3132;42.622;23.328;2022-09-17T12:24:32;7.70;;;7.20;;
6197;SDS011;3132;42.622;23.328;2022-09-17T12:31:54;6.73;;;6.37;;
6197;SDS011;3132;42.622;23.328;2022-09-17T12:36:51;7.60;;;7.30;;
6197;SDS011;3132;42.622;23.328;2022-09-17T12:39:32;7.80;;;7.30;;
6197;SDS011;3132;42.622;23.328;2022-09-17T12:42:14;8.43;;;8.03;;
6197;SDS011;3132;42.622;23.328;2022-09-17T12:44:51;7.83;;;7.33;;
6197;SDS011;3132;42.622;23.328;2022-09-17T12:53:13;7.63;;;7.30;;
6197;SDS011;3132;42.622;23.328;2022-09-17T13:01:00;8.27;;;7.87;;
6197;SDS011;3132;42.622;23.328;2022-09-17T13:22:47;8.37;;;8.07;;
6197;SDS011;3132;42.622;23.328;2022-09-17T13:25:15;7.80;;;7.50;;
6197;SDS011;3132;42.622;23.328;2022-09-17T13:27:43;8.50;;;8.10;;
6197;SDS011;3132;42.622;23.328;2022-09-17T13:30:10;7.87;;;7.57;;
6197;SDS011;3132;42.622;23.328;2022-09-17T13:37:39;8.67;;;8.07;;
6197;SDS011;3132;42.622;23.328;2022-09-17T13:45:32;7.50;;;7.10;;
6197;SDS011;3132;42.622;23.328;2022-09-17T13:48:07;7.80;;;7.50;;
6197;SDS011;3132;42.622;23.328;2022-09-17T13:50:41;7.73;;;7.37;;
6197;SDS011;3132;42.622;23.328;2022-09-17T14:11:03;7.73;;;7.43;;
6197;SDS011;3132;42.622;23.328;2022-09-17T14:13:51;7.77;;;7.33;;
6197;SDS011;3132;42.622;23.328;2022-09-17T14:19:03;7.90;;;7.60;;
6197;SDS011;3132;42.622;23.328;2022-09-17T14:21:42;7.93;;;7.60;;
6197;SDS011;3132;42.622;23.328;2022-09-17T14:24:22;7.63;;;7.30;;
6197;SDS011;3132;42.622;23.328;2022-09-17T14:35:12;8.53;;;8.00;;
6197;SDS011;3132;42.622;23.328;2022-09-17T14:41:00;9.33;;;8.80;;
6197;SDS011;3132;42.622;23.328;2022-09-17T14:43:31;8.37;;;7.87;;
6197;SDS011;3132;42.622;23.328;2022-09-17T14:46:18;9.80;;;9.30;;
6197;SDS011;3132;42.622;23.328;2022-09-17T14:48:46;10.73;;;10.03;;
6197;SDS011;3132;42.622;23.328;2022-09-17T14:51:29;10.27;;;9.57;;
6197;SDS011;3132;42.622;23.328;2022-09-17T14:56:29;9.67;;;9.00;;
6197;SDS011;3132;42.622;23.328;2022-09-17T14:58:58;9.93;;;9.33;;
6197;SDS011;3132;42.622;23.328;2022-09-17T15:01:26;10.13;;;9.43;;
6197;SDS011;3132;42.622;23.328;2022-09-17T15:06:37;8.67;;;8.07;;
6197;SDS011;3132;42.622;23.328;2022-09-17T15:09:03;9.53;;;8.83;;
6197;SDS011;3132;42.622;23.328;2022-09-17T15:11:29;9.87;;;9.17;;
6197;SDS011;3132;42.622;23.328;2022-09-17T15:13:55;9.43;;;8.83;;
6197;SDS011;3132;42.622;23.328;2022-09-17T15:16:24;9.87;;;9.13;;
6197;SDS011;3132;42.622;23.328;2022-09-17T15:18:52;9.87;;;9.13;;
6197;SDS011;3132;42.622;23.328;2022-09-17T15:24:11;9.27;;;8.70;;
6197;SDS011;3132;42.622;23.328;2022-09-17T15:27:03;9.47;;;9.00;;
6197;SDS011;3132;42.622;23.328;2022-09-17T15:29:36;9.23;;;8.70;;
6197;SDS011;3132;42.622;23.328;2022-09-17T15:32:04;9.67;;;8.87;;
6197;SDS011;3132;42.622;23.328;2022-09-17T15:34:30;7.97;;;7.53;;
6197;SDS011;3132;42.622;23.328;2022-09-17T15:39:30;11.87;;;9.80;;
6197;SDS011;3132;42.622;23.328;2022-09-17T15:42:02;19.37;;;13.07;;
6197;SDS011;3132;42.622;23.328;2022-09-17T15:44:28;10.00;;;9.30;;
6197;SDS011;3132;42.622;23.328;2022-09-17T15:46:54;9.37;;;8.77;;
6197;SDS011;3132;42.622;23.328;2022-09-17T15:51:54;8.90;;;8.47;;
6197;SDS011;3132;42.622;23.328;2022-09-17T15:54:27;9.47;;;8.67;;
6197;SDS011;3132;42.622;23.328;2022-09-17T15:56:55;9.77;;;9.17;;
6197;SDS011;3132;42.622;23.328;2022-09-17T15:59:25;8.50;;;8.10;;
6197;SDS011;3132;42.622;23.328;2022-09-17T16:01:54;8.50;;;8.10;;
6197;SDS011;3132;42.622;23.328;2022-09-17T16:04:22;8.27;;;7.97;;
6197;SDS011;3132;42.622;23.328;2022-09-17T16:06:52;8.30;;;8.00;;
6197;SDS011;3132;42.622;23.328;2022-09-17T16:12:30;8.10;;;7.70;;
6197;SDS011;3132;42.622;23.328;2022-09-17T16:14:57;8.00;;;7.50;;
6197;SDS011;3132;42.622;23.328;2022-09-17T16:20:04;8.87;;;8.37;;
6197;SDS011;3132;42.622;23.328;2022-09-17T16:22:38;8.20;;;7.90;;
6197;SDS011;3132;42.622;23.328;2022-09-17T16:25:03;8.40;;;7.90;;
6197;SDS011;3132;42.622;23.328;2022-09-17T16:27:29;7.73;;;7.37;;
6197;SDS011;3132;42.622;23.328;2022-09-17T16:30:06;8.33;;;7.93;;
6197;SDS011;3132;42.622;23.328;2022-09-17T16:32:33;7.47;;;7.17;;
6197;SDS011;3132;42.622;23.328;2022-09-17T16:34:59;9.33;;;8.77;;
6197;SDS011;3132;42.622;23.328;2022-09-17T16:37:24;10.90;;;10.10;;
6197;SDS011;3132;42.622;23.328;2022-09-17T16:39:50;9.87;;;9.07;;
6197;SDS011;3132;42.622;23.328;2022-09-17T16:42:16;9.77;;;9.07;;
6197;SDS011;3132;42.622;23.328;2022-09-17T16:44:41;8.50;;;8.00;;
6197;SDS011;3132;42.622;23.328;2022-09-17T16:47:07;9.50;;;9.00;;
6197;SDS011;3132;42.622;23.328;2022-09-17T16:49:32;8.83;;;8.10;;
6197;SDS011;3132;42.622;23.328;2022-09-17T16:51:57;9.33;;;8.63;;
6197;SDS011;3132;42.622;23.328;2022-09-17T16:54:23;8.77;;;8.27;;
6197;SDS011;3132;42.622;23.328;2022-09-17T16:56:48;8.87;;;8.47;;
6197;SDS011;3132;42.622;23.328;2022-09-17T16:59:14;9.43;;;8.93;;
6197;SDS011;3132;42.622;23.328;2022-09-17T17:01:39;10.03;;;9.33;;
6197;SDS011;3132;42.622;23.328;2022-09-17T17:04:05;8.60;;;8.10;;
6197;SDS011;3132;42.622;23.328;2022-09-17T17:06:31;9.70;;;9.03;;
6197;SDS011;3132;42.622;23.328;2022-09-17T17:08:56;8.73;;;8.33;;
6197;SDS011;3132;42.622;23.328;2022-09-17T17:11:26;10.17;;;9.53;;
6197;SDS011;3132;42.622;23.328;2022-09-17T17:13:52;9.10;;;8.60;;
6197;SDS011;3132;42.622;23.328;2022-09-17T17:16:19;8.47;;;8.10;;
6197;SDS011;3132;42.622;23.328;2022-09-17T17:18:45;9.00;;;8.50;;
6197;SDS011;3132;42.622;23.328;2022-09-17T17:21:11;9.83;;;9.23;;
6197;SDS011;3132;42.622;23.328;2022-09-17T17:23:37;9.77;;;9.13;;
6197;SDS011;3132;42.622;23.328;2022-09-17T17:26:02;9.67;;;9.07;;
6197;SDS011;3132;42.622;23.328;2022-09-17T17:28:32;8.77;;;8.27;;
6197;SDS011;3132;42.622;23.328;2022-09-17T17:30:59;9.83;;;9.33;;
6197;SDS011;3132;42.622;23.328;2022-09-17T17:33:24;8.57;;;8.07;;
6197;SDS011;3132;42.622;23.328;2022-09-17T17:35:50;9.57;;;9.07;;
6197;SDS011;3132;42.622;23.328;2022-09-17T17:38:16;8.40;;;7.93;;
6197;SDS011;3132;42.622;23.328;2022-09-17T17:40:42;9.63;;;9.03;;
6197;SDS011;3132;42.622;23.328;2022-09-17T17:43:09;17.47;;;15.60;;
6197;SDS011;3132;42.622;23.328;2022-09-17T17:45:34;9.43;;;8.83;;
6197;SDS011;3132;42.622;23.328;2022-09-17T17:48:00;10.73;;;10.03;;
6197;SDS011;3132;42.622;23.328;2022-09-17T17:50:25;10.03;;;9.23;;
6197;SDS011;3132;42.622;23.328;2022-09-17T17:52:52;9.20;;;8.60;;
6197;SDS011;3132;42.622;23.328;2022-09-17T17:55:18;9.93;;;9.33;;
6197;SDS011;3132;42.622;23.328;2022-09-17T17:57:44;8.63;;;8.13;;
6197;SDS011;3132;42.622;23.328;2022-09-17T18:00:09;8.30;;;7.90;;
6197;SDS011;3132;42.622;23.328;2022-09-17T18:02:36;8.67;;;8.17;;
6197;SDS011;3132;42.622;23.328;2022-09-17T18:05:01;9.10;;;8.63;;
6197;SDS011;3132;42.622;23.328;2022-09-17T18:07:27;8.13;;;7.73;;
6197;SDS011;3132;42.622;23.328;2022-09-17T18:09:52;8.93;;;8.27;;
6197;SDS011;3132;42.622;23.328;2022-09-17T18:12:18;8.57;;;7.90;;
6197;SDS011;3132;42.622;23.328;2022-09-17T18:14:43;8.47;;;8.07;;
6197;SDS011;3132;42.622;23.328;2022-09-17T18:17:08;8.43;;;8.03;;
6197;SDS011;3132;42.622;23.328;2022-09-17T18:19:34;8.33;;;7.93;;
6197;SDS011;3132;42.622;23.328;2022-09-17T18:21:59;9.00;;;8.43;;
6197;SDS011;3132;42.622;23.328;2022-09-17T18:24:24;8.23;;;7.73;;
6197;SDS011;3132;42.622;23.328;2022-09-17T18:26:50;10.40;;;9.47;;
6197;SDS011;3132;42.622;23.328;2022-09-17T18:29:15;10.03;;;9.13;;
6197;SDS011;3132;42.622;23.328;2022-09-17T18:31:40;9.40;;;8.83;;
6197;SDS011;3132;42.622;23.328;2022-09-17T18:34:08;10.97;;;9.93;;
6197;SDS011;3132;42.622;23.328;2022-09-17T18:36:35;8.40;;;8.00;;
6197;SDS011;3132;42.622;23.328;2022-09-17T18:39:03;11.13;;;10.00;;
6197;SDS011;3132;42.622;23.328;2022-09-17T18:41:32;8.57;;;8.17;;
6197;SDS011;3132;42.622;23.328;2022-09-17T18:44:02;8.73;;;8.33;;
6197;SDS011;3132;42.622;23.328;2022-09-17T18:46:28;9.70;;;9.10;;
6197;SDS011;3132;42.622;23.328;2022-09-17T18:48:55;11.43;;;10.33;;
6197;SDS011;3132;42.622;23.328;2022-09-17T18:51:22;9.70;;;9.00;;
6197;SDS011;3132;42.622;23.328;2022-09-17T18:53:48;9.50;;;8.93;;
6197;SDS011;3132;42.622;23.328;2022-09-17T18:56:18;9.03;;;8.53;;